sensor_id;sensor_type;location;lat;lon;timestamp;P1;durP1;ratioP1;P2;durP2;ratioP2
21589;SDS011;10957;50.968;6.828;2023-09-19T00:03:31;3.80;;;3.70;;
21589;SDS011;10957;50.968;6.828;2023-09-19T00:08:33;3.90;;;3.80;;
21589;SDS011;10957;50.968;6.828;2023-09-19T00:13:35;3.80;;;3.70;;
21589;SDS011;10957;50.968;6.828;2023-09-19T00:18:37;4.10;;;3.90;;
21589;SDS011;10957;50.968;6.828;2023-09-19T00:23:39;4.15;;;3.95;;
21589;SDS011;10957;50.968;6.828;2023-09-19T00:28:41;4.10;;;3.90;;
21589;SDS011;10957;50.968;6.828;2023-09-19T00:33:44;3.70;;;3.60;;
21589;SDS011;10957;50.968;6.828;2023-09-19T00:38:45;3.90;;;3.80;;
21589;SDS011;10957;50.968;6.828;2023-09-19T00:43:47;4.07;;;3.88;;
21589;SDS011;10957;50.968;6.828;2023-09-19T00:48:48;3.70;;;3.60;;
21589;SDS011;10957;50.968;6.828;2023-09-19T00:53:50;4.22;;;4.03;;
21589;SDS011;10957;50.968;6.828;2023-09-19T00:58:53;4.15;;;3.95;;
21589;SDS011;10957;50.968;6.828;2023-09-19T01:03:54;3.70;;;3.60;;
21589;SDS011;10957;50.968;6.828;2023-09-19T01:08:56;3.58;;;3.47;;
21589;SDS011;10957;50.968;6.828;2023-09-19T01:14:09;4.10;;;3.90;;
21589;SDS011;10957;50.968;6.828;2023-09-19T01:20:29;3.70;;;3.60;;
21589;SDS011;10957;50.968;6.828;2023-09-19T01:30:20;3.90;;;3.80;;
21589;SDS011;10957;50.968;6.828;2023-09-19T01:35:25;3.80;;;3.70;;
21589;SDS011;10957;50.968;6.828;2023-09-19T01:40:26;4.65;;;4.35;;
21589;SDS011;10957;50.968;6.828;2023-09-19T01:56:25;3.83;;;3.65;;
21589;SDS011;10957;50.968;6.828;2023-09-19T02:01:33;3.70;;;3.60;;
21589;SDS011;10957;50.968;6.828;2023-09-19T02:06:41;3.30;;;3.20;;
21589;SDS011;10957;50.968;6.828;2023-09-19T02:11:43;3.88;;;3.72;;
21589;SDS011;10957;50.968;6.828;2023-09-19T02:16:44;3.30;;;3.20;;
21589;SDS011;10957;50.968;6.828;2023-09-19T02:21:46;3.83;;;3.72;;
21589;SDS011;10957;50.968;6.828;2023-09-19T02:26:49;3.70;;;3.60;;
21589;SDS011;10957;50.968;6.828;2023-09-19T02:31:50;3.95;;;3.75;;
21589;SDS011;10957;50.968;6.828;2023-09-19T02:36:52;3.40;;;3.30;;
21589;SDS011;10957;50.968;6.828;2023-09-19T02:41:55;3.65;;;3.47;;
21589;SDS011;10957;50.968;6.828;2023-09-19T02:46:57;3.50;;;3.40;;
21589;SDS011;10957;50.968;6.828;2023-09-19T02:51:58;3.42;;;3.33;;
21589;SDS011;10957;50.968;6.828;2023-09-19T02:57:00;3.70;;;3.60;;
21589;SDS011;10957;50.968;6.828;2023-09-19T03:02:01;4.25;;;4.05;;
21589;SDS011;10957;50.968;6.828;2023-09-19T03:07:04;3.80;;;3.60;;
21589;SDS011;10957;50.968;6.828;2023-09-19T03:12:06;3.50;;;3.40;;
21589;SDS011;10957;50.968;6.828;2023-09-19T03:17:09;3.33;;;3.22;;
21589;SDS011;10957;50.968;6.828;2023-09-19T03:22:11;4.95;;;3.78;;
21589;SDS011;10957;50.968;6.828;2023-09-19T03:27:13;3.65;;;3.55;;
21589;SDS011;10957;50.968;6.828;2023-09-19T03:32:17;3.20;;;3.10;;
21589;SDS011;10957;50.968;6.828;2023-09-19T03:37:19;3.30;;;3.20;;
21589;SDS011;10957;50.968;6.828;2023-09-19T03:42:20;3.85;;;3.63;;
21589;SDS011;10957;50.968;6.828;2023-09-19T03:47:27;3.70;;;3.60;;
21589;SDS011;10957;50.968;6.828;2023-09-19T03:52:30;3.80;;;3.70;;
21589;SDS011;10957;50.968;6.828;2023-09-19T03:57:31;3.72;;;3.63;;
21589;SDS011;10957;50.968;6.828;2023-09-19T04:02:33;4.53;;;4.32;;
21589;SDS011;10957;50.968;6.828;2023-09-19T04:07:35;10.55;;;4.25;;
21589;SDS011;10957;50.968;6.828;2023-09-19T04:12:37;3.70;;;3.60;;
21589;SDS011;10957;50.968;6.828;2023-09-19T04:17:38;3.50;;;3.40;;
21589;SDS011;10957;50.968;6.828;2023-09-19T04:22:40;3.50;;;3.40;;
21589;SDS011;10957;50.968;6.828;2023-09-19T04:27:41;3.72;;;3.63;;
21589;SDS011;10957;50.968;6.828;2023-09-19T04:32:42;3.30;;;3.20;;
21589;SDS011;10957;50.968;6.828;2023-09-19T04:37:44;3.60;;;3.40;;
21589;SDS011;10957;50.968;6.828;2023-09-19T04:42:45;3.03;;;2.92;;
21589;SDS011;10957;50.968;6.828;2023-09-19T04:47:54;3.10;;;3.00;;
21589;SDS011;10957;50.968;6.828;2023-09-19T04:52:56;26.73;;;3.78;;
21589;SDS011;10957;50.968;6.828;2023-09-19T04:57:58;3.45;;;3.35;;
21589;SDS011;10957;50.968;6.828;2023-09-19T05:02:59;3.30;;;3.20;;
21589;SDS011;10957;50.968;6.828;2023-09-19T05:08:00;5.03;;;3.60;;
21589;SDS011;10957;50.968;6.828;2023-09-19T05:13:06;3.50;;;3.30;;
21589;SDS011;10957;50.968;6.828;2023-09-19T05:18:08;3.25;;;3.15;;
21589;SDS011;10957;50.968;6.828;2023-09-19T05:23:09;3.45;;;3.35;;
21589;SDS011;10957;50.968;6.828;2023-09-19T05:28:13;3.15;;;3.05;;
21589;SDS011;10957;50.968;6.828;2023-09-19T05:33:15;3.20;;;3.10;;
21589;SDS011;10957;50.968;6.828;2023-09-19T05:38:19;2.92;;;2.83;;
21589;SDS011;10957;50.968;6.828;2023-09-19T05:43:21;3.00;;;2.90;;
21589;SDS011;10957;50.968;6.828;2023-09-19T05:48:22;3.53;;;3.33;;
21589;SDS011;10957;50.968;6.828;2023-09-19T05:53:23;3.00;;;2.90;;
21589;SDS011;10957;50.968;6.828;2023-09-19T05:58:25;2.92;;;2.83;;
21589;SDS011;10957;50.968;6.828;2023-09-19T06:03:26;4.00;;;3.80;;
21589;SDS011;10957;50.968;6.828;2023-09-19T06:08:27;3.00;;;2.90;;
21589;SDS011;10957;50.968;6.828;2023-09-19T06:13:29;3.42;;;3.33;;
21589;SDS011;10957;50.968;6.828;2023-09-19T06:18:31;3.00;;;2.90;;
21589;SDS011;10957;50.968;6.828;2023-09-19T06:23:34;3.47;;;3.38;;
21589;SDS011;10957;50.968;6.828;2023-09-19T06:28:36;2.90;;;2.80;;
21589;SDS011;10957;50.968;6.828;2023-09-19T06:33:37;3.85;;;3.47;;
21589;SDS011;10957;50.968;6.828;2023-09-19T06:38:40;3.22;;;3.13;;
21589;SDS011;10957;50.968;6.828;2023-09-19T06:43:41;4.45;;;3.10;;
21589;SDS011;10957;50.968;6.828;2023-09-19T06:48:43;4.20;;;3.92;;
21589;SDS011;10957;50.968;6.828;2023-09-19T06:53:44;3.30;;;3.20;;
21589;SDS011;10957;50.968;6.828;2023-09-19T06:58:46;3.00;;;2.90;;
21589;SDS011;10957;50.968;6.828;2023-09-19T07:03:47;4.15;;;3.95;;
21589;SDS011;10957;50.968;6.828;2023-09-19T07:08:48;3.00;;;2.90;;
21589;SDS011;10957;50.968;6.828;2023-09-19T07:13:51;3.20;;;3.10;;
21589;SDS011;10957;50.968;6.828;2023-09-19T07:18:52;3.05;;;2.95;;
21589;SDS011;10957;50.968;6.828;2023-09-19T07:23:59;3.60;;;3.30;;
21589;SDS011;10957;50.968;6.828;2023-09-19T07:29:04;3.00;;;2.90;;
21589;SDS011;10957;50.968;6.828;2023-09-19T07:34:07;3.10;;;3.00;;
21589;SDS011;10957;50.968;6.828;2023-09-19T07:39:11;3.00;;;2.90;;
21589;SDS011;10957;50.968;6.828;2023-09-19T07:44:13;3.05;;;2.95;;
21589;SDS011;10957;50.968;6.828;2023-09-19T07:49:15;4.90;;;3.47;;
21589;SDS011;10957;50.968;6.828;2023-09-19T07:54:16;3.00;;;2.90;;
21589;SDS011;10957;50.968;6.828;2023-09-19T07:59:18;2.60;;;2.50;;
21589;SDS011;10957;50.968;6.828;2023-09-19T08:04:19;2.50;;;2.40;;
21589;SDS011;10957;50.968;6.828;2023-09-19T08:09:24;3.13;;;3.03;;
21589;SDS011;10957;50.968;6.828;2023-09-19T08:14:28;3.30;;;3.20;;
21589;SDS011;10957;50.968;6.828;2023-09-19T08:19:30;2.80;;;2.70;;
21589;SDS011;10957;50.968;6.828;2023-09-19T08:24:32;2.75;;;2.65;;
21589;SDS011;10957;50.968;6.828;2023-09-19T08:29:35;3.10;;;3.00;;
21589;SDS011;10957;50.968;6.828;2023-09-19T08:34:36;3.03;;;2.92;;
21589;SDS011;10957;50.968;6.828;2023-09-19T08:39:45;3.70;;;3.50;;
21589;SDS011;10957;50.968;6.828;2023-09-19T08:44:47;7.75;;;3.60;;
21589;SDS011;10957;50.968;6.828;2023-09-19T08:55:14;3.50;;;3.40;;
21589;SDS011;10957;50.968;6.828;2023-09-19T09:00:21;4.00;;;3.80;;
21589;SDS011;10957;50.968;6.828;2023-09-19T09:05:25;3.60;;;3.45;;
21589;SDS011;10957;50.968;6.828;2023-09-19T09:10:37;3.70;;;3.50;;
21589;SDS011;10957;50.968;6.828;2023-09-19T09:15:41;3.50;;;3.40;;
21589;SDS011;10957;50.968;6.828;2023-09-19T09:20:45;3.70;;;3.58;;
21589;SDS011;10957;50.968;6.828;2023-09-19T09:25:53;3.30;;;3.20;;
21589;SDS011;10957;50.968;6.828;2023-09-19T09:30:57;3.85;;;3.75;;
21589;SDS011;10957;50.968;6.828;2023-09-19T09:36:02;3.90;;;3.70;;
21589;SDS011;10957;50.968;6.828;2023-09-19T09:41:05;3.50;;;3.40;;
21589;SDS011;10957;50.968;6.828;2023-09-19T09:51:31;3.80;;;3.60;;
21589;SDS011;10957;50.968;6.828;2023-09-19T09:56:33;3.60;;;3.50;;
21589;SDS011;10957;50.968;6.828;2023-09-19T10:01:47;4.65;;;4.30;;
21589;SDS011;10957;50.968;6.828;2023-09-19T10:06:54;4.50;;;4.22;;
21589;SDS011;10957;50.968;6.828;2023-09-19T10:12:08;3.67;;;3.58;;
21589;SDS011;10957;50.968;6.828;2023-09-19T10:17:13;3.42;;;3.33;;
21589;SDS011;10957;50.968;6.828;2023-09-19T10:22:20;3.40;;;3.30;;
21589;SDS011;10957;50.968;6.828;2023-09-19T10:27:22;3.60;;;3.50;;
21589;SDS011;10957;50.968;6.828;2023-09-19T10:32:27;3.80;;;3.70;;
21589;SDS011;10957;50.968;6.828;2023-09-19T10:37:34;3.80;;;3.70;;
21589;SDS011;10957;50.968;6.828;2023-09-19T10:42:41;3.63;;;3.53;;
21589;SDS011;10957;50.968;6.828;2023-09-19T10:47:44;4.05;;;3.85;;
21589;SDS011;10957;50.968;6.828;2023-09-19T10:52:46;4.18;;;3.97;;
21589;SDS011;10957;50.968;6.828;2023-09-19T10:57:47;3.80;;;3.60;;
21589;SDS011;10957;50.968;6.828;2023-09-19T11:08:12;3.70;;;3.50;;
21589;SDS011;10957;50.968;6.828;2023-09-19T11:13:27;4.15;;;3.95;;
21589;SDS011;10957;50.968;6.828;2023-09-19T11:23:41;3.30;;;3.20;;
21589;SDS011;10957;50.968;6.828;2023-09-19T11:39:39;3.38;;;3.25;;
21589;SDS011;10957;50.968;6.828;2023-09-19T11:45:01;3.17;;;3.08;;
21589;SDS011;10957;50.968;6.828;2023-09-19T11:50:05;3.10;;;3.00;;
21589;SDS011;10957;50.968;6.828;2023-09-19T11:55:12;3.20;;;3.10;;
21589;SDS011;10957;50.968;6.828;2023-09-19T12:00:17;3.42;;;3.33;;
21589;SDS011;10957;50.968;6.828;2023-09-19T12:05:27;2.83;;;2.72;;
21589;SDS011;10957;50.968;6.828;2023-09-19T12:10:50;3.20;;;3.10;;
21589;SDS011;10957;50.968;6.828;2023-09-19T12:15:58;4.40;;;4.20;;
21589;SDS011;10957;50.968;6.828;2023-09-19T12:21:01;3.60;;;3.40;;
21589;SDS011;10957;50.968;6.828;2023-09-19T12:26:08;11.52;;;4.10;;
21589;SDS011;10957;50.968;6.828;2023-09-19T12:31:13;4.65;;;4.45;;
21589;SDS011;10957;50.968;6.828;2023-09-19T12:36:22;3.55;;;3.40;;
21589;SDS011;10957;50.968;6.828;2023-09-19T12:41:30;4.35;;;3.97;;
21589;SDS011;10957;50.968;6.828;2023-09-19T12:46:32;3.17;;;3.08;;
21589;SDS011;10957;50.968;6.828;2023-09-19T12:51:36;3.15;;;3.05;;
21589;SDS011;10957;50.968;6.828;2023-09-19T12:56:41;3.50;;;3.30;;
21589;SDS011;10957;50.968;6.828;2023-09-19T13:01:49;3.10;;;3.00;;
21589;SDS011;10957;50.968;6.828;2023-09-19T13:07:04;2.90;;;2.80;;
21589;SDS011;10957;50.968;6.828;2023-09-19T13:12:34;3.03;;;2.92;;
21589;SDS011;10957;50.968;6.828;2023-09-19T13:17:43;3.40;;;3.30;;
21589;SDS011;10957;50.968;6.828;2023-09-19T13:22:45;3.17;;;3.08;;
21589;SDS011;10957;50.968;6.828;2023-09-19T13:27:52;2.90;;;2.80;;
21589;SDS011;10957;50.968;6.828;2023-09-19T13:33:06;3.55;;;3.45;;
21589;SDS011;10957;50.968;6.828;2023-09-19T13:38:10;3.63;;;3.47;;
21589;SDS011;10957;50.968;6.828;2023-09-19T13:43:11;5.65;;;4.57;;
21589;SDS011;10957;50.968;6.828;2023-09-19T13:48:13;3.78;;;3.67;;
21589;SDS011;10957;50.968;6.828;2023-09-19T13:53:14;3.63;;;3.53;;
21589;SDS011;10957;50.968;6.828;2023-09-19T13:58:17;3.70;;;3.60;;
21589;SDS011;10957;50.968;6.828;2023-09-19T14:03:18;4.05;;;3.85;;
21589;SDS011;10957;50.968;6.828;2023-09-19T14:08:21;3.70;;;3.60;;
21589;SDS011;10957;50.968;6.828;2023-09-19T14:13:24;6.00;;;5.00;;
21589;SDS011;10957;50.968;6.828;2023-09-19T14:18:26;32.03;;;3.80;;
21589;SDS011;10957;50.968;6.828;2023-09-19T14:23:27;3.30;;;3.20;;
21589;SDS011;10957;50.968;6.828;2023-09-19T14:28:29;3.40;;;3.30;;
21589;SDS011;10957;50.968;6.828;2023-09-19T14:33:33;3.35;;;3.25;;
21589;SDS011;10957;50.968;6.828;2023-09-19T14:38:34;3.30;;;3.20;;
21589;SDS011;10957;50.968;6.828;2023-09-19T14:43:38;4.45;;;4.22;;
21589;SDS011;10957;50.968;6.828;2023-09-19T14:48:39;4.07;;;3.88;;
21589;SDS011;10957;50.968;6.828;2023-09-19T14:53:41;3.40;;;3.30;;
21589;SDS011;10957;50.968;6.828;2023-09-19T14:58:43;3.92;;;3.72;;
21589;SDS011;10957;50.968;6.828;2023-09-19T15:03:44;3.60;;;3.50;;
21589;SDS011;10957;50.968;6.828;2023-09-19T15:08:47;3.30;;;3.20;;
21589;SDS011;10957;50.968;6.828;2023-09-19T15:13:50;3.60;;;3.50;;
21589;SDS011;10957;50.968;6.828;2023-09-19T15:18:53;3.70;;;3.60;;
21589;SDS011;10957;50.968;6.828;2023-09-19T15:23:56;4.00;;;3.80;;
21589;SDS011;10957;50.968;6.828;2023-09-19T15:28:57;3.60;;;3.50;;
21589;SDS011;10957;50.968;6.828;2023-09-19T15:33:59;3.47;;;3.38;;
21589;SDS011;10957;50.968;6.828;2023-09-19T15:44:14;3.55;;;3.35;;
21589;SDS011;10957;50.968;6.828;2023-09-19T15:49:17;3.20;;;3.10;;
21589;SDS011;10957;50.968;6.828;2023-09-19T15:54:18;3.40;;;3.30;;
21589;SDS011;10957;50.968;6.828;2023-09-19T15:59:20;3.20;;;3.10;;
21589;SDS011;10957;50.968;6.828;2023-09-19T16:04:21;2.90;;;2.80;;
21589;SDS011;10957;50.968;6.828;2023-09-19T16:09:22;3.50;;;3.40;;
21589;SDS011;10957;50.968;6.828;2023-09-19T16:14:24;3.40;;;3.30;;
21589;SDS011;10957;50.968;6.828;2023-09-19T16:19:27;3.10;;;3.00;;
21589;SDS011;10957;50.968;6.828;2023-09-19T16:24:29;3.40;;;3.30;;
21589;SDS011;10957;50.968;6.828;2023-09-19T16:29:30;3.05;;;2.95;;
21589;SDS011;10957;50.968;6.828;2023-09-19T16:34:31;3.20;;;3.10;;
21589;SDS011;10957;50.968;6.828;2023-09-19T16:39:33;4.50;;;4.18;;
21589;SDS011;10957;50.968;6.828;2023-09-19T16:44:34;3.30;;;3.20;;
21589;SDS011;10957;50.968;6.828;2023-09-19T16:49:36;3.83;;;3.63;;
21589;SDS011;10957;50.968;6.828;2023-09-19T16:54:37;3.40;;;3.30;;
21589;SDS011;10957;50.968;6.828;2023-09-19T16:59:39;3.20;;;3.10;;
21589;SDS011;10957;50.968;6.828;2023-09-19T17:04:44;3.10;;;3.00;;
21589;SDS011;10957;50.968;6.828;2023-09-19T17:09:45;3.20;;;3.10;;
21589;SDS011;10957;50.968;6.828;2023-09-19T17:14:46;3.30;;;3.20;;
21589;SDS011;10957;50.968;6.828;2023-09-19T17:19:48;2.80;;;2.70;;
21589;SDS011;10957;50.968;6.828;2023-09-19T17:24:49;3.25;;;3.15;;
21589;SDS011;10957;50.968;6.828;2023-09-19T17:29:51;3.10;;;3.00;;
21589;SDS011;10957;50.968;6.828;2023-09-19T17:34:53;2.90;;;2.80;;
21589;SDS011;10957;50.968;6.828;2023-09-19T17:39:54;2.78;;;2.67;;
21589;SDS011;10957;50.968;6.828;2023-09-19T17:44:57;2.90;;;2.80;;
21589;SDS011;10957;50.968;6.828;2023-09-19T17:49:58;4.25;;;3.15;;
21589;SDS011;10957;50.968;6.828;2023-09-19T17:55:03;3.10;;;3.00;;
21589;SDS011;10957;50.968;6.828;2023-09-19T18:00:05;3.10;;;3.00;;
21589;SDS011;10957;50.968;6.828;2023-09-19T18:05:12;3.10;;;3.00;;
21589;SDS011;10957;50.968;6.828;2023-09-19T18:10:17;3.97;;;3.78;;
21589;SDS011;10957;50.968;6.828;2023-09-19T18:15:18;3.10;;;3.00;;
21589;SDS011;10957;50.968;6.828;2023-09-19T18:20:19;2.72;;;2.63;;
21589;SDS011;10957;50.968;6.828;2023-09-19T18:25:22;6.78;;;3.40;;
21589;SDS011;10957;50.968;6.828;2023-09-19T18:30:24;3.65;;;3.45;;
21589;SDS011;10957;50.968;6.828;2023-09-19T18:35:26;3.10;;;3.00;;
21589;SDS011;10957;50.968;6.828;2023-09-19T18:40:30;3.00;;;2.90;;
21589;SDS011;10957;50.968;6.828;2023-09-19T18:45:31;2.70;;;2.60;;
21589;SDS011;10957;50.968;6.828;2023-09-19T18:50:33;2.83;;;2.72;;
21589;SDS011;10957;50.968;6.828;2023-09-19T18:55:35;2.90;;;2.80;;
21589;SDS011;10957;50.968;6.828;2023-09-19T19:00:36;3.15;;;3.03;;
21589;SDS011;10957;50.968;6.828;2023-09-19T19:05:38;2.90;;;2.80;;
21589;SDS011;10957;50.968;6.828;2023-09-19T19:10:39;2.45;;;2.35;;
21589;SDS011;10957;50.968;6.828;2023-09-19T19:15:40;2.40;;;2.30;;
21589;SDS011;10957;50.968;6.828;2023-09-19T19:20:42;2.40;;;2.30;;
21589;SDS011;10957;50.968;6.828;2023-09-19T19:25:46;3.10;;;2.85;;
21589;SDS011;10957;50.968;6.828;2023-09-19T19:30:51;2.30;;;2.20;;
21589;SDS011;10957;50.968;6.828;2023-09-19T19:35:53;2.55;;;2.45;;
21589;SDS011;10957;50.968;6.828;2023-09-19T19:41:07;2.20;;;2.10;;
21589;SDS011;10957;50.968;6.828;2023-09-19T19:46:09;2.40;;;2.30;;
21589;SDS011;10957;50.968;6.828;2023-09-19T19:51:11;2.20;;;2.10;;
21589;SDS011;10957;50.968;6.828;2023-09-19T19:56:13;2.35;;;2.25;;
21589;SDS011;10957;50.968;6.828;2023-09-19T20:01:15;3.03;;;2.92;;
21589;SDS011;10957;50.968;6.828;2023-09-19T20:06:16;2.20;;;2.10;;
21589;SDS011;10957;50.968;6.828;2023-09-19T20:11:22;3.05;;;2.95;;
21589;SDS011;10957;50.968;6.828;2023-09-19T20:16:29;2.83;;;2.72;;
21589;SDS011;10957;50.968;6.828;2023-09-19T20:21:33;2.28;;;2.17;;
21589;SDS011;10957;50.968;6.828;2023-09-19T20:26:35;2.58;;;2.47;;
21589;SDS011;10957;50.968;6.828;2023-09-19T20:31:40;2.20;;;2.10;;
21589;SDS011;10957;50.968;6.828;2023-09-19T20:36:41;2.33;;;2.22;;
21589;SDS011;10957;50.968;6.828;2023-09-19T20:41:42;2.70;;;2.50;;
21589;SDS011;10957;50.968;6.828;2023-09-19T20:46:45;2.40;;;2.30;;
21589;SDS011;10957;50.968;6.828;2023-09-19T20:51:54;2.10;;;2.00;;
21589;SDS011;10957;50.968;6.828;2023-09-19T20:56:55;2.17;;;2.08;;
21589;SDS011;10957;50.968;6.828;2023-09-19T21:01:58;1.80;;;1.80;;
21589;SDS011;10957;50.968;6.828;2023-09-19T21:06:59;2.00;;;1.90;;
21589;SDS011;10957;50.968;6.828;2023-09-19T21:12:01;2.10;;;2.00;;
21589;SDS011;10957;50.968;6.828;2023-09-19T21:17:02;2.05;;;1.95;;
21589;SDS011;10957;50.968;6.828;2023-09-19T21:22:04;2.10;;;2.00;;
21589;SDS011;10957;50.968;6.828;2023-09-19T21:27:05;2.00;;;1.90;;
21589;SDS011;10957;50.968;6.828;2023-09-19T21:32:07;2.03;;;1.92;;
21589;SDS011;10957;50.968;6.828;2023-09-19T21:37:09;2.92;;;2.25;;
21589;SDS011;10957;50.968;6.828;2023-09-19T21:42:15;2.17;;;2.08;;
21589;SDS011;10957;50.968;6.828;2023-09-19T21:47:16;2.10;;;2.00;;
21589;SDS011;10957;50.968;6.828;2023-09-19T21:52:18;2.10;;;2.00;;
21589;SDS011;10957;50.968;6.828;2023-09-19T21:57:19;2.10;;;2.00;;
21589;SDS011;10957;50.968;6.828;2023-09-19T22:02:21;1.80;;;1.80;;
21589;SDS011;10957;50.968;6.828;2023-09-19T22:07:22;1.80;;;1.80;;
21589;SDS011;10957;50.968;6.828;2023-09-19T22:12:26;2.88;;;2.70;;
21589;SDS011;10957;50.968;6.828;2023-09-19T22:17:27;2.50;;;2.38;;
21589;SDS011;10957;50.968;6.828;2023-09-19T22:22:28;2.30;;;2.20;;
21589;SDS011;10957;50.968;6.828;2023-09-19T22:27:30;2.00;;;1.90;;
21589;SDS011;10957;50.968;6.828;2023-09-19T22:32:31;2.05;;;1.95;;
21589;SDS011;10957;50.968;6.828;2023-09-19T22:37:35;2.10;;;2.00;;
21589;SDS011;10957;50.968;6.828;2023-09-19T22:42:37;2.17;;;2.08;;
21589;SDS011;10957;50.968;6.828;2023-09-19T22:47:41;2.10;;;2.00;;
21589;SDS011;10957;50.968;6.828;2023-09-19T22:52:44;2.30;;;2.20;;
21589;SDS011;10957;50.968;6.828;2023-09-19T22:57:54;2.10;;;2.00;;
21589;SDS011;10957;50.968;6.828;2023-09-19T23:02:56;2.00;;;1.90;;
21589;SDS011;10957;50.968;6.828;2023-09-19T23:07:58;2.85;;;2.35;;
21589;SDS011;10957;50.968;6.828;2023-09-19T23:13:00;2.30;;;2.20;;
21589;SDS011;10957;50.968;6.828;2023-09-19T23:18:01;1.95;;;1.85;;
21589;SDS011;10957;50.968;6.828;2023-09-19T23:23:03;1.70;;;1.70;;
21589;SDS011;10957;50.968;6.828;2023-09-19T23:28:05;2.20;;;2.10;;
21589;SDS011;10957;50.968;6.828;2023-09-19T23:33:07;2.40;;;2.20;;
21589;SDS011;10957;50.968;6.828;2023-09-19T23:38:08;1.90;;;1.80;;
21589;SDS011;10957;50.968;6.828;2023-09-19T23:43:09;1.80;;;1.80;;
21589;SDS011;10957;50.968;6.828;2023-09-19T23:48:14;2.05;;;1.95;;
21589;SDS011;10957;50.968;6.828;2023-09-19T23:53:17;1.75;;;1.75;;
21589;SDS011;10957;50.968;6.828;2023-09-19T23:58:20;1.80;;;1.80;;
